Time;durP1;ratioP1;P1;durP2;ratioP2;P2;SDS_P1;SDS_P2;PMS_P1;PMS_P2;Temp;Humidity;BMP_temperature;BMP_pressure;BME280_temperature;BME280_humidity;BME280_pressure;Samples;Min_cycle;Max_cycle;Signal;HPM_P1;HPM_P2
2023/12/16 00:01:33;;;;;;;5.13;1.60;;;;;;;7.30;98.93;103849.69;5036003;28;20336;-73
2023/12/16 00:03:59;;;;;;;7.90;1.85;;;;;;;7.29;99.28;103847.91;5031617;28;20041;-73
2023/12/16 00:06:24;;;;;;;6.10;1.65;;;;;;;7.29;99.39;103855.72;5029777;28;20049;-73
2023/12/16 00:08:50;;;;;;;11.25;1.77;;;;;;;7.25;99.13;103849.56;5036200;28;20201;-73
2023/12/16 00:11:15;;;;;;;13.50;3.25;;;;;;;7.24;99.35;103849.53;5021943;28;20037;-73
2023/12/16 00:13:41;;;;;;;6.15;1.77;;;;;;;7.25;99.73;103851.31;5021639;28;20053;-73
2023/12/16 00:16:06;;;;;;;6.03;1.90;;;;;;;7.25;100.00;103852.16;5035857;28;20033;-73
2023/12/16 00:18:32;;;;;;;12.35;2.92;;;;;;;7.23;100.00;103851.25;5034839;28;20037;-73
2023/12/16 00:20:57;;;;;;;7.65;1.90;;;;;;;7.23;100.00;103850.38;5036353;28;20435;-73
2023/12/16 00:23:23;;;;;;;5.20;1.33;;;;;;;7.26;100.00;103850.47;5036618;28;20037;-73
2023/12/16 00:25:48;;;;;;;7.57;1.63;;;;;;;7.23;100.00;103848.66;5035563;28;20034;-73
2023/12/16 00:28:13;;;;;;;7.05;2.08;;;;;;;7.21;100.00;103846.88;5036485;28;20033;-73
2023/12/16 00:30:39;;;;;;;15.82;2.70;;;;;;;7.21;100.00;103845.13;5036156;28;20037;-73
2023/12/16 00:33:04;;;;;;;16.08;2.78;;;;;;;7.19;100.00;103852.06;5036047;28;20096;-73
2023/12/16 00:35:29;;;;;;;15.68;2.83;;;;;;;7.18;100.00;103849.41;5035937;28;20548;-73
2023/12/16 00:37:55;;;;;;;10.35;3.13;;;;;;;7.18;100.00;103849.41;5036237;28;20061;-73
2023/12/16 00:40:20;;;;;;;14.90;3.08;;;;;;;7.17;100.00;103847.63;5035733;28;20272;-73
2023/12/16 00:42:45;;;;;;;11.82;2.50;;;;;;;7.09;100.00;103845.78;5035220;28;20041;-73
2023/12/16 00:45:11;;;;;;;11.77;2.45;;;;;;;7.07;100.00;103841.34;5036178;28;20043;-73
2023/12/16 00:47:38;;;;;;;11.95;2.90;;;;;;;7.07;100.00;103839.63;5036067;28;20037;-73
2023/12/16 00:50:04;;;;;;;10.18;2.80;;;;;;;7.09;100.00;103845.78;5036063;28;20341;-73
2023/12/16 00:52:30;;;;;;;9.98;2.75;;;;;;;7.08;100.00;103844.00;5035434;28;20037;-73
2023/12/16 00:54:55;;;;;;;18.45;2.95;;;;;;;7.04;100.00;103836.97;5035501;28;20053;-73
2023/12/16 00:57:21;;;;;;;8.70;2.92;;;;;;;7.03;100.00;103829.09;5035927;28;20102;-73
2023/12/16 00:59:46;;;;;;;20.48;3.17;;;;;;;7.02;100.00;103828.22;5035552;28;20269;-73
2023/12/16 01:02:11;;;;;;;12.77;3.00;;;;;;;7.02;100.00;103828.22;5034717;28;20194;-73
2023/12/16 01:04:37;;;;;;;11.18;3.55;;;;;;;7.00;100.00;103826.44;5034180;28;20041;-73
2023/12/16 01:07:03;;;;;;;12.80;2.72;;;;;;;7.01;100.00;103830.81;5035430;28;20091;-73
2023/12/16 01:09:28;;;;;;;8.27;2.88;;;;;;;7.03;100.00;103837.78;5035244;28;20224;-73
2023/12/16 01:11:54;;;;;;;12.73;3.40;;;;;;;6.98;100.00;103836.81;5035493;28;20033;-74
2023/12/16 01:14:20;;;;;;;20.88;3.80;;;;;;;6.97;100.00;103834.16;5035081;28;20037;-73
2023/12/16 01:16:45;;;;;;;22.70;3.53;;;;;;;6.93;100.00;103835.84;5034533;28;20348;-73
2023/12/16 01:19:10;;;;;;;19.20;3.65;;;;;;;6.96;100.00;103829.81;5035152;28;20220;-73
2023/12/16 01:21:40;;;;;;;17.25;4.03;;;;;;;6.93;100.00;103825.44;5034562;28;20036;-73
2023/12/16 01:24:06;;;;;;;7.53;2.70;;;;;;;6.97;100.00;103829.84;5034932;28;20033;-73
2023/12/16 01:26:31;;;;;;;11.85;3.45;;;;;;;6.95;100.00;103820.22;5034363;28;20052;-73
2023/12/16 01:28:56;;;;;;;9.02;3.60;;;;;;;6.92;100.00;103821.91;5035269;28;20071;-73
2023/12/16 01:31:22;;;;;;;8.63;3.25;;;;;;;6.87;100.00;103820.94;5034540;28;20295;-73
2023/12/16 01:33:47;;;;;;;12.18;3.67;;;;;;;6.92;100.00;103826.25;5033700;28;20340;-73
2023/12/16 01:36:13;;;;;;;6.25;3.08;;;;;;;6.91;100.00;103817.56;5033344;28;20049;-73
2023/12/16 01:38:39;;;;;;;9.18;3.30;;;;;;;6.90;100.00;103823.63;5033251;28;20083;-73
2023/12/16 01:41:05;;;;;;;11.50;3.95;;;;;;;6.90;100.00;103833.16;5033107;28;20291;-73
2023/12/16 01:43:30;;;;;;;15.95;4.28;;;;;;;6.83;100.00;103831.25;5032934;28;20237;-73
2023/12/16 01:46:01;;;;;;;17.70;4.10;;;;;;;6.76;100.00;103827.63;5033539;28;20037;-73
2023/12/16 01:48:27;;;;;;;7.63;3.30;;;;;;;6.80;100.00;103829.44;5033163;28;20029;-73
2023/12/16 01:50:52;;;;;;;18.33;4.25;;;;;;;6.78;100.00;103810.31;5034797;28;20405;-73
2023/12/16 01:53:18;;;;;;;14.93;4.00;;;;;;;6.76;100.00;103818.94;5034558;28;20033;-73
2023/12/16 01:55:43;;;;;;;17.58;4.13;;;;;;;6.72;100.00;103816.25;5034355;28;20202;-73
2023/12/16 01:58:09;;;;;;;16.23;3.88;;;;;;;6.75;100.00;103818.06;5034550;28;20048;-73
2023/12/16 02:00:35;;;;;;;14.80;4.10;;;;;;;6.76;100.00;103800.72;5034682;28;20045;-73
2023/12/16 02:03:01;;;;;;;11.15;3.55;;;;;;;6.77;100.00;103803.34;5034375;28;20255;-73
2023/12/16 02:05:27;;;;;;;10.85;3.75;;;;;;;6.79;100.00;103819.03;5033476;28;20033;-73
2023/12/16 02:07:52;;;;;;;15.13;4.25;;;;;;;6.77;100.00;103818.09;5034892;28;20060;-73
2023/12/16 02:10:18;;;;;;;18.58;4.00;;;;;;;6.80;100.00;103825.97;5034603;28;20034;-73
2023/12/16 02:12:43;;;;;;;8.00;3.40;;;;;;;6.83;100.00;103823.44;5034261;28;20033;-73
2023/12/16 02:15:09;;;;;;;11.88;4.53;;;;;;;6.82;100.00;103819.06;5034201;28;20363;-73
2023/12/16 02:17:34;;;;;;;13.48;4.28;;;;;;;6.81;100.00;103809.53;5034031;28;20041;-73
2023/12/16 02:20:00;;;;;;;19.70;4.40;;;;;;;6.78;100.00;103807.69;5034127;28;20361;-73
2023/12/16 02:22:25;;;;;;;9.75;3.60;;;;;;;6.81;100.00;103815.59;5034266;28;20241;-73
2023/12/16 02:24:52;;;;;;;12.52;4.13;;;;;;;6.82;100.00;103826.88;5016295;28;20059;-73
2023/12/16 02:27:18;;;;;;;15.57;4.15;;;;;;;6.81;100.00;103820.81;5033958;28;20241;-73
2023/12/16 02:29:43;;;;;;;21.05;4.00;;;;;;;6.78;100.00;103825.06;5033888;28;20063;-73
2023/12/16 02:32:10;;;;;;;12.05;3.50;;;;;;;6.78;100.00;103822.47;5034427;28;20037;-73
2023/12/16 02:34:35;;;;;;;19.85;4.60;;;;;;;6.79;100.00;103826.84;5033703;28;20037;-73
2023/12/16 02:37:05;;;;;;;17.45;4.00;;;;;;;6.77;100.00;103828.50;5034329;28;20065;-73
2023/12/16 02:39:34;;;;;;;9.88;3.42;;;;;;;6.78;100.00;103812.03;5033864;28;20333;-73
2023/12/16 02:41:59;;;;;;;16.05;4.55;;;;;;;6.76;100.00;103819.81;5034428;28;20065;-73
2023/12/16 02:44:25;;;;;;;15.15;3.50;;;;;;;6.77;100.00;103815.47;5034401;28;20035;-73
2023/12/16 02:46:50;;;;;;;14.90;4.07;;;;;;;6.77;100.00;103824.19;5033800;28;20264;-73
2023/12/16 02:49:15;;;;;;;19.40;4.97;;;;;;;6.77;100.00;103826.81;5033433;28;20056;-73
2023/12/16 02:51:41;;;;;;;15.52;4.47;;;;;;;6.82;100.00;103817.38;5034038;28;20048;-73
2023/12/16 02:54:06;;;;;;;12.73;4.53;;;;;;;6.80;100.00;103816.44;5033814;28;20220;-73
2023/12/16 02:56:31;;;;;;;17.80;4.28;;;;;;;6.77;100.00;103820.69;5033285;28;20337;-73
2023/12/16 02:58:57;;;;;;;15.07;3.78;;;;;;;6.75;100.00;103822.38;5033955;28;20101;-73
2023/12/16 03:01:22;;;;;;;9.88;3.63;;;;;;;6.76;100.00;103813.72;5033484;28;20344;-73
2023/12/16 03:03:47;;;;;;;7.07;3.28;;;;;;;6.77;100.00;103810.28;5033537;28;20055;-73
2023/12/16 03:06:12;;;;;;;13.48;3.72;;;;;;;6.76;100.00;103808.53;5035553;28;20249;-73
2023/12/16 03:08:38;;;;;;;16.05;4.25;;;;;;;6.76;100.00;103801.59;5034109;28;20116;-73
2023/12/16 03:11:04;;;;;;;16.65;3.75;;;;;;;6.74;100.00;103803.28;5033630;28;20036;-73
2023/12/16 03:13:30;;;;;;;12.43;3.70;;;;;;;6.78;100.00;103809.44;5033759;28;20029;-73
2023/12/16 03:15:55;;;;;;;9.80;3.58;;;;;;;6.77;100.00;103799.84;5032960;28;20041;-73
2023/12/16 03:18:21;;;;;;;21.30;5.03;;;;;;;6.73;100.00;103804.09;5033689;28;20092;-73
2023/12/16 03:20:47;;;;;;;14.98;3.90;;;;;;;6.76;100.00;103806.78;5032560;28;20087;-73
2023/12/16 03:23:12;;;;;;;13.13;4.38;;;;;;;6.72;100.00;103805.84;5033841;28;20316;-73
2023/12/16 03:25:38;;;;;;;11.23;3.90;;;;;;;6.73;100.00;103806.72;5035695;28;20359;-73
2023/12/16 03:28:06;;;;;;;21.85;4.45;;;;;;;6.70;100.00;103798.84;5037290;28;20049;-73
2023/12/16 03:30:31;;;;;;;23.97;4.90;;;;;;;6.67;100.00;103807.44;5019128;28;20037;-73
2023/12/16 03:32:56;;;;;;;17.00;4.35;;;;;;;6.61;100.00;103799.50;5036934;28;20045;-73
2023/12/16 03:35:22;;;;;;;10.82;3.78;;;;;;;6.63;100.00;103817.78;5035747;28;20276;-73
2023/12/16 03:37:48;;;;;;;14.45;4.10;;;;;;;6.62;100.00;103819.50;5034781;28;20076;-73
2023/12/16 03:40:13;;;;;;;10.15;3.67;;;;;;;6.61;100.00;103815.13;5036243;28;20307;-73
2023/12/16 03:42:38;;;;;;;14.70;3.65;;;;;;;6.62;100.00;103816.91;5035650;28;20060;-73
2023/12/16 03:45:04;;;;;;;15.88;4.07;;;;;;;6.60;100.00;103818.56;5035778;28;20067;-73
2023/12/16 03:47:29;;;;;;;19.98;4.18;;;;;;;6.60;100.00;103815.09;5035469;28;20404;-73
2023/12/16 03:49:55;;;;;;;14.23;4.13;;;;;;;6.58;100.00;103815.06;5036151;28;20075;-73
2023/12/16 03:52:20;;;;;;;12.55;3.90;;;;;;;6.60;100.00;103817.69;5036921;28;20336;-73
2023/12/16 03:54:46;;;;;;;14.02;4.40;;;;;;;6.51;100.00;103810.53;5036669;28;20053;-73
2023/12/16 03:57:11;;;;;;;13.27;4.82;;;;;;;6.49;100.00;103814.84;5036396;28;20040;-73
2023/12/16 03:59:36;;;;;;;12.63;4.18;;;;;;;6.50;100.00;103814.00;5036115;28;20041;-73
2023/12/16 04:02:02;;;;;;;13.80;3.97;;;;;;;6.50;100.00;103801.00;5036724;28;20079;-73
2023/12/16 04:04:27;;;;;;;14.90;4.57;;;;;;;6.51;100.00;103800.13;5036460;28;20079;-73
2023/12/16 04:06:53;;;;;;;14.73;4.45;;;;;;;6.51;100.00;103801.03;5036403;28;20040;-73
2023/12/16 04:09:18;;;;;;;11.73;4.30;;;;;;;6.52;100.00;103800.16;5036717;28;20266;-73
2023/12/16 04:11:49;;;;;;;12.15;4.32;;;;;;;6.56;100.00;103798.53;5035837;28;20044;-73
2023/12/16 04:14:15;;;;;;;10.85;3.97;;;;;;;6.56;100.00;103795.91;5021111;28;20143;-73
2023/12/16 04:16:40;;;;;;;16.38;4.38;;;;;;;6.53;100.00;103798.44;5036166;28;20068;-73
2023/12/16 04:19:05;;;;;;;19.95;5.85;;;;;;;6.52;100.00;103794.09;5035713;28;20041;-73
2023/12/16 04:21:32;;;;;;;28.15;4.40;;;;;;;6.51;100.00;103794.91;5036097;28;20229;-73
2023/12/16 04:23:58;;;;;;;19.60;4.57;;;;;;;6.48;100.00;103785.31;5036356;28;20056;-73
2023/12/16 04:26:23;;;;;;;18.73;4.85;;;;;;;6.49;100.00;103781.91;5036112;28;20033;-73
2023/12/16 04:28:49;;;;;;;22.20;4.80;;;;;;;6.47;100.00;103788.75;5035640;28;20105;-73
2023/12/16 04:31:16;;;;;;;17.15;5.18;;;;;;;6.49;100.00;103791.41;5036361;28;20064;-73
2023/12/16 04:33:42;;;;;;;17.48;4.03;;;;;;;6.52;100.00;103788.88;5035290;28;20087;-73
2023/12/16 04:36:13;;;;;;;28.15;5.68;;;;;;;6.47;100.00;103791.38;5034860;28;20307;-73
2023/12/16 04:38:38;;;;;;;18.23;4.30;;;;;;;6.48;100.00;103792.25;5035898;28;20041;-73
2023/12/16 04:41:04;;;;;;;19.88;4.65;;;;;;;6.49;100.00;103791.41;5035982;28;20041;-73
2023/12/16 04:43:29;;;;;;;19.58;4.82;;;;;;;6.52;100.00;103791.50;5035830;28;20605;-73
2023/12/16 04:45:54;;;;;;;14.35;5.05;;;;;;;6.49;100.00;103788.81;5035786;28;20044;-73
2023/12/16 04:48:20;;;;;;;15.90;4.45;;;;;;;6.46;100.00;103792.22;5036036;28;20075;-73
2023/12/16 04:50:45;;;;;;;16.73;4.38;;;;;;;6.47;100.00;103793.09;5035785;28;20041;-73
2023/12/16 04:53:10;;;;;;;26.63;5.18;;;;;;;6.47;100.00;103799.19;5035355;28;20297;-73
2023/12/16 04:55:36;;;;;;;14.88;4.03;;;;;;;6.48;100.00;103798.34;5035777;28;20037;-73
2023/12/16 04:58:01;;;;;;;29.90;6.90;;;;;;;6.52;100.00;103791.50;5035913;28;20021;-73
2023/12/16 05:00:27;;;;;;;18.45;3.67;;;;;;;6.54;100.00;103797.59;5034874;28;20257;-73
2023/12/16 05:02:52;;;;;;;20.10;4.53;;;;;;;6.52;100.00;103794.97;5035622;28;20033;-73
2023/12/16 05:05:17;;;;;;;12.25;3.70;;;;;;;6.53;100.00;103807.16;5017181;28;20106;-73
2023/12/16 05:07:43;;;;;;;27.75;4.32;;;;;;;6.49;100.00;103799.22;5035294;28;20060;-73
2023/12/16 05:10:10;;;;;;;15.70;3.83;;;;;;;6.52;100.00;103796.69;5035471;28;20033;-73
2023/12/16 05:12:37;;;;;;;18.73;3.80;;;;;;;6.56;100.00;103795.91;5034850;28;20040;-73
2023/12/16 05:15:04;;;;;;;16.58;4.13;;;;;;;6.58;100.00;103794.22;5017133;28;20044;-73
2023/12/16 05:17:29;;;;;;;17.45;3.50;;;;;;;6.53;100.00;103795.84;5035309;28;20025;-73
2023/12/16 05:19:54;;;;;;;13.85;3.03;;;;;;;6.54;100.00;103795.88;5035024;28;20108;-73
2023/12/16 05:22:19;;;;;;;21.33;4.32;;;;;;;6.54;100.00;103795.88;5035091;28;20052;-73
2023/12/16 05:24:47;;;;;;;16.15;2.80;;;;;;;6.56;100.00;103793.31;5034926;28;20055;-73
2023/12/16 05:27:13;;;;;;;18.17;3.90;;;;;;;6.58;100.00;103795.97;5035116;28;20109;-73
2023/12/16 05:29:38;;;;;;;22.65;4.22;;;;;;;6.57;100.00;103792.47;5034708;28;20044;-73
2023/12/16 05:32:04;;;;;;;19.13;3.50;;;;;;;6.57;100.00;103792.47;5034967;28;20071;-73
2023/12/16 05:34:30;;;;;;;20.35;4.03;;;;;;;6.52;100.00;103788.88;5033296;28;20040;-73
2023/12/16 05:36:55;;;;;;;22.55;3.78;;;;;;;6.52;100.00;103788.88;5034515;28;20119;-73
2023/12/16 05:39:20;;;;;;;28.63;4.72;;;;;;;6.54;100.00;103787.19;5033997;28;20348;-73
2023/12/16 05:41:46;;;;;;;13.00;3.60;;;;;;;6.54;100.00;103785.47;5033891;28;20426;-73
2023/12/16 05:44:11;;;;;;;19.00;4.10;;;;;;;6.58;100.00;103793.34;5034718;28;20265;-73
2023/12/16 05:46:36;;;;;;;13.85;3.10;;;;;;;6.56;100.00;103795.03;5034126;28;20041;-73
2023/12/16 05:49:02;;;;;;;16.27;3.67;;;;;;;6.56;100.00;103790.72;5033620;28;20423;-73
2023/12/16 05:51:27;;;;;;;23.02;4.18;;;;;;;6.52;100.00;103789.75;5034208;28;20379;-73
2023/12/16 05:53:52;;;;;;;20.38;4.25;;;;;;;6.52;100.00;103791.50;5035066;28;20029;-73
2023/12/16 05:56:18;;;;;;;23.95;4.68;;;;;;;6.51;100.00;103784.50;5034249;28;20057;-73
2023/12/16 05:58:43;;;;;;;20.80;3.90;;;;;;;6.47;100.00;103788.75;5034723;28;20037;-73
2023/12/16 06:01:09;;;;;;;17.02;3.67;;;;;;;6.47;100.00;103791.38;5034875;28;20029;-73
2023/12/16 06:03:34;;;;;;;14.55;3.65;;;;;;;6.52;100.00;103788.88;5034737;28;20034;-73
2023/12/16 06:05:59;;;;;;;17.00;3.55;;;;;;;6.54;100.00;103795.00;5036074;28;20132;-73
2023/12/16 06:08:25;;;;;;;17.25;3.67;;;;;;;6.54;100.00;103792.41;5034657;28;20067;-73
2023/12/16 06:10:50;;;;;;;16.98;3.53;;;;;;;6.53;100.00;103793.22;5034243;28;20032;-73
2023/12/16 06:13:15;;;;;;;12.00;3.03;;;;;;;6.53;100.00;103799.34;5034255;28;20041;-73
2023/12/16 06:15:41;;;;;;;19.05;3.90;;;;;;;6.54;100.00;103795.00;5033956;28;20017;-73
2023/12/16 06:18:06;;;;;;;21.90;4.18;;;;;;;6.52;100.00;103796.69;5033962;28;20351;-73
2023/12/16 06:20:32;;;;;;;25.33;4.55;;;;;;;6.50;100.00;103803.59;5033437;28;20033;-73
2023/12/16 06:22:57;;;;;;;14.73;4.03;;;;;;;6.52;100.00;103814.94;5033725;28;20043;-73
2023/12/16 06:25:22;;;;;;;23.95;4.25;;;;;;;6.48;100.00;103815.69;5034060;28;20380;-73
2023/12/16 06:27:48;;;;;;;16.73;3.83;;;;;;;6.50;100.00;103808.81;5033783;28;20041;-73
2023/12/16 06:30:13;;;;;;;17.90;3.65;;;;;;;6.50;100.00;103811.41;5034385;28;20060;-73
2023/12/16 06:32:39;;;;;;;19.73;3.60;;;;;;;6.48;100.00;103800.09;5016510;28;20245;-73
2023/12/16 06:35:05;;;;;;;20.42;4.10;;;;;;;6.47;100.00;103806.97;5033492;28;20030;-73
2023/12/16 06:37:30;;;;;;;21.10;3.85;;;;;;;6.47;100.00;103806.13;5033336;28;20096;-73
2023/12/16 06:39:55;;;;;;;17.13;3.40;;;;;;;6.45;100.00;103800.00;5034551;28;20033;-73
2023/12/16 06:42:21;;;;;;;17.98;3.92;;;;;;;6.44;100.00;103806.94;5033838;28;20293;-73
2023/12/16 06:44:46;;;;;;;30.27;3.67;;;;;;;6.40;100.00;103806.81;5033821;28;20065;-73
2023/12/16 06:47:11;;;;;;;19.90;3.30;;;;;;;6.38;100.00;103808.50;5034027;28;20132;-73
2023/12/16 06:49:38;;;;;;;19.83;3.85;;;;;;;6.43;100.00;103809.50;5033345;28;20034;-72
2023/12/16 06:52:03;;;;;;;23.65;3.72;;;;;;;6.42;100.00;103819.03;5033785;28;20045;-73
2023/12/16 06:54:29;;;;;;;17.60;4.10;;;;;;;6.47;100.00;103813.94;5034297;28;20041;-73
2023/12/16 06:56:55;;;;;;;11.27;3.58;;;;;;;6.48;100.00;103816.56;5034004;28;20045;-73
2023/12/16 06:59:20;;;;;;;17.67;3.60;;;;;;;6.49;100.00;103823.56;5034664;28;20040;-73
2023/12/16 07:01:45;;;;;;;11.30;3.50;;;;;;;6.51;100.00;103824.47;5037569;28;20033;-73
2023/12/16 07:04:11;;;;;;;13.60;3.20;;;;;;;6.48;100.00;103820.91;5037156;28;20041;-73
2023/12/16 07:06:37;;;;;;;18.35;3.47;;;;;;;6.47;100.00;103825.22;5034670;28;20097;-73
2023/12/16 07:09:02;;;;;;;15.98;3.70;;;;;;;6.49;100.00;103839.19;5037390;28;20136;-73
2023/12/16 07:11:27;;;;;;;20.05;3.60;;;;;;;6.47;100.00;103832.16;5036787;28;20135;-73
2023/12/16 07:13:53;;;;;;;13.73;3.55;;;;;;;6.43;100.00;103833.81;5037543;28;20077;-73
2023/12/16 07:16:19;;;;;;;21.05;4.22;;;;;;;6.44;100.00;103838.19;5036764;28;20048;-73
2023/12/16 07:18:44;;;;;;;15.50;3.90;;;;;;;6.41;100.00;103835.50;5035382;28;20041;-73
2023/12/16 07:21:09;;;;;;;18.20;4.45;;;;;;;6.41;100.00;103840.69;5037169;28;20076;-73
2023/12/16 07:23:35;;;;;;;19.70;4.28;;;;;;;6.40;100.00;103840.66;5037072;28;20379;-73
2023/12/16 07:26:00;;;;;;;14.32;3.35;;;;;;;6.44;100.00;103838.19;5036556;28;20029;-73
2023/12/16 07:28:26;;;;;;;14.10;2.88;;;;;;;6.41;100.00;103845.91;5036336;28;20039;-73
2023/12/16 07:30:52;;;;;;;22.42;4.68;;;;;;;6.38;100.00;103843.22;5037045;28;20411;-73
2023/12/16 07:33:17;;;;;;;16.02;3.42;;;;;;;6.33;100.00;103850.03;5041184;28;20036;-73
2023/12/16 07:35:42;;;;;;;25.17;3.97;;;;;;;6.33;100.00;103845.72;5039873;28;20364;-73
2023/12/16 07:38:08;;;;;;;12.23;3.50;;;;;;;6.38;100.00;103845.81;5044336;28;20204;-73
2023/12/16 07:40:36;;;;;;;7.93;3.10;;;;;;;6.47;100.00;103843.44;5041231;28;20083;-73
2023/12/16 07:43:02;;;;;;;22.33;4.63;;;;;;;6.45;100.00;103846.84;5045048;28;20040;-73
2023/12/16 07:45:28;;;;;;;13.38;3.42;;;;;;;6.47;100.00;103842.56;5043895;28;20025;-73
2023/12/16 07:47:53;;;;;;;13.45;3.30;;;;;;;6.46;100.00;103831.28;5044943;28;20048;-73
2023/12/16 07:50:20;;;;;;;21.02;3.60;;;;;;;6.49;100.00;103843.47;5041557;28;20095;-73
2023/12/16 07:52:46;;;;;;;18.33;4.40;;;;;;;6.50;100.00;103840.91;5040244;28;20210;-73
2023/12/16 07:55:12;;;;;;;10.50;3.42;;;;;;;6.51;100.00;103832.28;5036268;28;20033;-73
2023/12/16 07:57:37;;;;;;;20.65;3.85;;;;;;;6.49;100.00;103839.19;5036509;28;20052;-73
2023/12/16 08:00:04;;;;;;;16.02;3.17;;;;;;;6.53;100.00;103847.91;5037569;28;20116;-73
2023/12/16 08:02:30;;;;;;;16.83;4.38;;;;;;;6.51;100.00;103832.28;5047432;28;20123;-73
2023/12/16 08:04:56;;;;;;;20.55;4.60;;;;;;;6.50;100.00;103833.09;5045003;28;20228;-73
2023/12/16 08:07:22;;;;;;;17.60;3.88;;;;;;;6.54;100.00;103839.28;5038170;28;20104;-73
2023/12/16 08:09:47;;;;;;;21.90;3.63;;;;;;;6.56;100.00;103834.09;5035693;28;20061;-73
2023/12/16 08:12:12;;;;;;;30.40;4.82;;;;;;;6.56;100.00;103834.97;5035739;28;20250;-73
2023/12/16 08:14:38;;;;;;;18.55;3.95;;;;;;;6.63;100.00;103836.00;5034508;28;20037;-73
2023/12/16 08:17:03;;;;;;;19.00;4.03;;;;;;;6.64;100.00;103830.84;5033322;28;20041;-73
2023/12/16 08:19:29;;;;;;;13.27;3.67;;;;;;;6.70;100.00;103833.59;5033500;28;20087;-73
2023/12/16 08:21:54;;;;;;;19.10;4.32;;;;;;;6.72;100.00;103841.44;5035579;28;20037;-73
2023/12/16 08:24:20;;;;;;;21.40;4.75;;;;;;;6.76;100.00;103832.84;5035403;28;20030;-72
2023/12/16 08:26:49;;;;;;;15.65;3.83;;;;;;;6.75;100.00;103841.53;5034008;28;20179;-72
2023/12/16 08:29:15;;;;;;;16.98;4.63;;;;;;;6.77;100.00;103842.44;5035349;28;20321;-73
2023/12/16 08:31:41;;;;;;;24.33;4.18;;;;;;;6.79;100.00;103847.69;5034906;28;20047;-73
2023/12/16 08:34:06;;;;;;;19.00;4.65;;;;;;;6.80;100.00;103847.69;5034842;28;20045;-73
2023/12/16 08:36:31;;;;;;;20.67;4.55;;;;;;;6.84;100.00;103848.63;5034197;28;20045;-73
2023/12/16 08:38:57;;;;;;;20.83;4.65;;;;;;;6.87;100.00;103861.75;5033716;28;20029;-73
2023/12/16 08:41:22;;;;;;;14.20;3.15;;;;;;;6.91;100.00;103855.75;5035726;28;20041;-73
2023/12/16 08:43:47;;;;;;;24.80;4.80;;;;;;;6.94;100.00;103874.06;5035515;28;20037;-73
2023/12/16 08:46:13;;;;;;;21.85;4.70;;;;;;;6.92;100.00;103871.44;5035394;28;20337;-74
2023/12/16 08:48:40;;;;;;;14.10;4.13;;;;;;;6.92;100.00;103866.22;5025694;28;20254;-73
2023/12/16 08:51:06;;;;;;;27.20;5.50;;;;;;;6.97;100.00;103868.03;5027140;28;20029;-73
2023/12/16 08:53:31;;;;;;;22.77;4.22;;;;;;;6.98;100.00;103867.22;5031481;28;20061;-73
2023/12/16 08:55:57;;;;;;;19.52;4.80;;;;;;;7.00;100.00;103873.31;5031641;28;20059;-73
2023/12/16 08:58:22;;;;;;;18.92;4.55;;;;;;;7.02;100.00;103869.03;5013077;28;20039;-73
2023/12/16 09:00:48;;;;;;;14.57;4.57;;;;;;;7.02;100.00;103863.81;5031069;28;20040;-73
2023/12/16 09:03:14;;;;;;;29.23;5.80;;;;;;;7.02;100.00;103864.72;5031745;28;20061;-73
2023/12/16 09:05:40;;;;;;;24.70;4.95;;;;;;;7.05;100.00;103869.09;5031116;28;20056;-73
2023/12/16 09:08:05;;;;;;;28.38;6.18;;;;;;;7.05;100.00;103880.41;5028502;28;20046;-73
2023/12/16 09:10:31;;;;;;;24.13;5.63;;;;;;;7.07;100.00;103883.91;5030402;28;20194;-73
2023/12/16 09:12:56;;;;;;;21.20;6.18;;;;;;;7.13;100.00;103890.13;5012685;28;20033;-73
2023/12/16 09:15:21;;;;;;;28.27;5.00;;;;;;;7.12;100.00;103889.25;5030861;28;20120;-73
2023/12/16 09:17:47;;;;;;;30.52;6.03;;;;;;;7.14;100.00;103900.59;5025710;28;20371;-74
2023/12/16 09:20:13;;;;;;;22.92;5.50;;;;;;;7.16;100.00;103895.41;5030330;28;20255;-74
2023/12/16 09:22:38;;;;;;;24.85;5.50;;;;;;;7.16;100.00;103905.84;5029022;28;20044;-74
2023/12/16 09:25:06;;;;;;;29.85;5.97;;;;;;;7.16;100.00;103911.94;5030343;28;20040;-74
2023/12/16 09:27:31;;;;;;;26.98;5.45;;;;;;;7.19;100.00;103906.78;5029978;28;20144;-74
2023/12/16 09:29:57;;;;;;;31.40;6.43;;;;;;;7.19;100.00;103913.75;5030774;28;20851;-74
2023/12/16 09:32:22;;;;;;;19.42;4.90;;;;;;;7.23;100.00;103912.94;5027405;28;20368;-74
2023/12/16 09:34:48;;;;;;;27.92;6.22;;;;;;;7.24;100.00;103919.91;5028597;28;20268;-74
2023/12/16 09:37:14;;;;;;;26.35;6.07;;;;;;;7.29;100.00;103923.50;5028211;28;21174;-74
2023/12/16 09:39:40;;;;;;;30.65;5.35;;;;;;;7.33;100.00;103927.97;5029221;28;20343;-74
2023/12/16 09:42:06;;;;;;;20.45;4.82;;;;;;;7.38;100.00;103935.88;5029988;28;20029;-74
2023/12/16 09:44:36;;;;;;;25.92;4.78;;;;;;;7.42;100.00;103929.88;5028414;28;20364;-74
2023/12/16 09:47:03;;;;;;;31.80;5.72;;;;;;;7.43;100.00;103927.31;5028120;28;20028;-74
2023/12/16 09:49:30;;;;;;;21.15;5.20;;;;;;;7.44;100.00;103920.34;5025170;28;20037;-74
2023/12/16 09:51:55;;;;;;;27.42;4.97;;;;;;;7.47;100.00;103934.34;5027591;28;20093;-74
2023/12/16 09:54:21;;;;;;;19.52;5.05;;;;;;;7.48;100.00;103933.50;5027528;28;20053;-74
2023/12/16 09:56:49;;;;;;;23.23;5.40;;;;;;;7.49;100.00;103937.88;5027579;28;20025;-74
2023/12/16 09:59:16;;;;;;;24.57;4.83;;;;;;;7.53;100.00;103937.94;5028256;28;20029;-74
2023/12/16 10:01:49;;;;;;;27.63;4.68;;;;;;;7.53;100.00;103945.75;5029204;28;20029;-74
2023/12/16 10:04:14;;;;;;;21.90;4.60;;;;;;;7.55;100.00;103950.19;5028390;28;20075;-74
2023/12/16 10:06:40;;;;;;;24.35;5.05;;;;;;;7.58;100.00;103952.81;5035249;28;20049;-74
2023/12/16 10:09:05;;;;;;;28.15;4.65;;;;;;;7.60;100.00;103943.31;5046101;28;20300;-73
2023/12/16 10:11:39;;;;;;;18.42;4.90;;;;;;;7.63;100.00;103939.91;5048536;28;20033;-74
2023/12/16 10:14:04;;;;;;;19.10;4.85;;;;;;;7.66;100.00;103934.75;5046045;28;20107;-74
2023/12/16 10:16:29;;;;;;;20.50;5.78;;;;;;;7.68;100.00;103927.84;5048090;28;20091;-74
2023/12/16 10:18:57;;;;;;;19.42;4.38;;;;;;;7.69;100.00;103933.09;5045114;28;20302;-74
2023/12/16 10:21:28;;;;;;;20.85;4.50;;;;;;;7.70;100.00;103933.97;5045399;28;20407;-74
2023/12/16 10:23:58;;;;;;;25.15;4.85;;;;;;;7.72;100.00;103939.22;5046043;28;20104;-74
2023/12/16 10:26:24;;;;;;;25.60;4.53;;;;;;;7.74;100.00;103940.13;5048377;28;20029;-74
2023/12/16 10:28:51;;;;;;;21.35;4.95;;;;;;;7.74;100.00;103941.00;5046217;28;20040;-74
2023/12/16 10:31:18;;;;;;;20.75;5.57;;;;;;;7.74;100.00;103938.38;5047287;28;20033;-74
2023/12/16 10:33:46;;;;;;;17.58;4.85;;;;;;;7.77;100.00;103943.69;5038951;28;20084;-74
2023/12/16 10:36:11;;;;;;;12.30;4.82;;;;;;;7.76;100.00;103938.44;5046898;28;20055;-74
2023/12/16 10:38:37;;;;;;;12.27;4.35;;;;;;;7.78;100.00;103935.00;5047184;28;20033;-74
2023/12/16 10:41:02;;;;;;;16.30;5.43;;;;;;;7.77;100.00;103937.59;5046710;28;20032;-74
2023/12/16 10:43:29;;;;;;;11.57;5.43;;;;;;;7.77;100.00;103932.38;5046971;28;20032;-74
2023/12/16 10:45:55;;;;;;;20.42;5.45;;;;;;;7.78;100.00;103937.59;5046240;28;20418;-74
2023/12/16 10:48:21;;;;;;;12.82;5.45;;;;;;;7.78;100.00;103939.34;5046918;28;20033;-74
2023/12/16 10:50:48;;;;;;;18.55;5.85;;;;;;;7.78;100.00;103935.00;5045480;28;20369;-74
2023/12/16 10:54:06;;;;;;;11.02;5.47;;;;;;;7.76;100.00;103923.66;5045585;28;20072;-74
2023/12/16 10:56:38;;;;;;;11.00;5.68;;;;;;;7.78;100.00;103921.94;4995170;28;20061;-74
2023/12/16 10:59:14;;;;;;;17.17;6.40;;;;;;;7.79;100.00;103915.88;5046510;28;20041;-74
2023/12/16 11:01:45;;;;;;;12.27;5.57;;;;;;;7.77;100.00;103909.75;5046016;28;20067;-74
2023/12/16 11:04:16;;;;;;;17.20;5.88;;;;;;;7.77;100.00;103901.06;5029324;28;20036;-74
2023/12/16 11:07:03;;;;;;;16.25;6.72;;;;;;;7.77;100.00;103899.31;5045362;28;20103;-74
2023/12/16 11:09:29;;;;;;;12.88;6.55;;;;;;;7.77;100.00;103901.94;5046481;28;20191;-74
2023/12/16 11:11:57;;;;;;;12.90;6.75;;;;;;;7.80;100.00;103898.50;5045769;28;20040;-74